sensor_id;sensor_type;location;lat;lon;timestamp;pressure;altitude;pressure_sealevel;temperature;humidity
62789;BME280;66401;42.016;21.454;2024-01-15T00:01:16;97964.78;;;-2.35;79.99
62789;BME280;66401;42.016;21.454;2024-01-15T00:03:43;97960.50;;;-2.45;80.39
62789;BME280;66401;42.016;21.454;2024-01-15T00:06:08;97968.16;;;-2.56;81.53
62789;BME280;66401;42.016;21.454;2024-01-15T00:08:34;97960.50;;;-2.45;80.47
62789;BME280;66401;42.016;21.454;2024-01-15T00:10:59;97966.75;;;-2.38;80.53
62789;BME280;66401;42.016;21.454;2024-01-15T00:13:25;97956.91;;;-2.32;79.85
62789;BME280;66401;42.016;21.454;2024-01-15T00:15:50;97954.09;;;-2.28;79.61
62789;BME280;66401;42.016;21.454;2024-01-15T00:18:15;97938.69;;;-2.38;81.25
62789;BME280;66401;42.016;21.454;2024-01-15T00:20:41;97949.13;;;-2.30;80.47
62789;BME280;66401;42.016;21.454;2024-01-15T00:23:06;97950.50;;;-2.26;80.38
62789;BME280;66401;42.016;21.454;2024-01-15T00:25:32;97953.28;;;-2.29;81.08
62789;BME280;66401;42.016;21.454;2024-01-15T00:27:57;97957.09;;;-2.12;80.06
62789;BME280;66401;42.016;21.454;2024-01-15T00:30:23;97943.44;;;-2.34;80.48
62789;BME280;66401;42.016;21.454;2024-01-15T00:32:48;97938.72;;;-2.49;80.87
62789;BME280;66401;42.016;21.454;2024-01-15T00:35:14;97936.63;;;-2.44;80.20
62789;BME280;66401;42.016;21.454;2024-01-15T00:37:40;97938.81;;;-2.40;80.08
62789;BME280;66401;42.016;21.454;2024-01-15T00:40:06;97930.16;;;-2.48;81.03
62789;BME280;66401;42.016;21.454;2024-01-15T00:42:33;97929.91;;;-2.45;81.84
62789;BME280;66401;42.016;21.454;2024-01-15T00:44:58;97938.94;;;-2.30;80.86
62789;BME280;66401;42.016;21.454;2024-01-15T00:47:24;97924.78;;;-2.45;80.71
62789;BME280;66401;42.016;21.454;2024-01-15T00:49:49;97943.47;;;-2.45;81.10
62789;BME280;66401;42.016;21.454;2024-01-15T00:52:15;97933.63;;;-2.49;80.96
62789;BME280;66401;42.016;21.454;2024-01-15T00:54:40;97935.13;;;-2.58;81.73
62789;BME280;66401;42.016;21.454;2024-01-15T00:57:06;97946.59;;;-2.64;82.08
62789;BME280;66401;42.016;21.454;2024-01-15T00:59:31;97919.28;;;-2.84;81.29
62789;BME280;66401;42.016;21.454;2024-01-15T01:01:57;97937.22;;;-2.63;82.04
62789;BME280;66401;42.016;21.454;2024-01-15T01:04:22;97943.38;;;-2.66;81.95
62789;BME280;66401;42.016;21.454;2024-01-15T01:06:48;97930.25;;;-2.61;81.76
62789;BME280;66401;42.016;21.454;2024-01-15T01:09:13;97919.94;;;-2.71;82.28
62789;BME280;66401;42.016;21.454;2024-01-15T01:11:39;97931.66;;;-2.68;81.66
62789;BME280;66401;42.016;21.454;2024-01-15T01:14:05;97943.81;;;-2.72;82.37
62789;BME280;66401;42.016;21.454;2024-01-15T01:16:30;97941.38;;;-2.73;82.35
62789;BME280;66401;42.016;21.454;2024-01-15T01:18:56;97927.50;;;-2.69;82.04
62789;BME280;66401;42.016;21.454;2024-01-15T01:21:22;97922.28;;;-2.68;81.34
62789;BME280;66401;42.016;21.454;2024-01-15T01:23:47;97921.34;;;-2.67;80.97
62789;BME280;66401;42.016;21.454;2024-01-15T01:26:17;97917.75;;;-2.75;81.46
62789;BME280;66401;42.016;21.454;2024-01-15T01:28:42;97926.44;;;-2.67;81.84
62789;BME280;66401;42.016;21.454;2024-01-15T01:31:08;97916.69;;;-2.62;81.36
62789;BME280;66401;42.016;21.454;2024-01-15T01:33:33;97922.50;;;-2.60;82.09
62789;BME280;66401;42.016;21.454;2024-01-15T01:35:59;97926.44;;;-2.67;81.46
62789;BME280;66401;42.016;21.454;2024-01-15T01:38:24;97927.81;;;-2.63;81.91
62789;BME280;66401;42.016;21.454;2024-01-15T01:40:50;97926.44;;;-2.67;82.39
62789;BME280;66401;42.016;21.454;2024-01-15T01:43:15;97910.44;;;-2.57;81.62
62789;BME280;66401;42.016;21.454;2024-01-15T01:45:41;97905.78;;;-2.52;81.12
62789;BME280;66401;42.016;21.454;2024-01-15T01:48:07;97905.91;;;-2.54;81.67
62789;BME280;66401;42.016;21.454;2024-01-15T01:50:33;97895.16;;;-2.57;81.61
62789;BME280;66401;42.016;21.454;2024-01-15T01:53:00;97892.81;;;-2.49;81.49
62789;BME280;66401;42.016;21.454;2024-01-15T01:55:27;97894.31;;;-2.47;80.73
62789;BME280;66401;42.016;21.454;2024-01-15T01:57:55;97904.84;;;-2.51;81.32
62789;BME280;66401;42.016;21.454;2024-01-15T02:00:21;97898.03;;;-2.40;80.91
62789;BME280;66401;42.016;21.454;2024-01-15T02:02:46;97892.78;;;-2.38;80.82
62789;BME280;66401;42.016;21.454;2024-01-15T02:05:13;97890.69;;;-2.33;80.40
62789;BME280;66401;42.016;21.454;2024-01-15T02:07:43;97862.69;;;-2.55;81.30
62789;BME280;66401;42.016;21.454;2024-01-15T02:10:09;97872.44;;;-2.49;81.57
62789;BME280;66401;42.016;21.454;2024-01-15T02:12:35;97873.06;;;-2.36;81.34
62789;BME280;66401;42.016;21.454;2024-01-15T02:15:01;97881.91;;;-2.40;81.57
62789;BME280;66401;42.016;21.454;2024-01-15T02:17:27;97877.50;;;-2.38;82.03
62789;BME280;66401;42.016;21.454;2024-01-15T02:19:52;97863.69;;;-2.36;81.15
62789;BME280;66401;42.016;21.454;2024-01-15T02:22:17;97865.53;;;-2.38;81.37
62789;BME280;66401;42.016;21.454;2024-01-15T02:24:43;97852.13;;;-2.40;81.68
62789;BME280;66401;42.016;21.454;2024-01-15T02:27:08;97864.50;;;-2.35;81.86
62789;BME280;66401;42.016;21.454;2024-01-15T02:29:34;97863.34;;;-2.31;81.60
62789;BME280;66401;42.016;21.454;2024-01-15T02:32:04;97860.53;;;-2.28;81.39
62789;BME280;66401;42.016;21.454;2024-01-15T02:34:34;97859.13;;;-2.32;81.98
62789;BME280;66401;42.016;21.454;2024-01-15T02:36:59;97862.63;;;-2.33;81.86
62789;BME280;66401;42.016;21.454;2024-01-15T02:39:25;97848.47;;;-2.26;81.62
62789;BME280;66401;42.016;21.454;2024-01-15T02:41:50;97813.16;;;-2.42;81.34
62789;BME280;66401;42.016;21.454;2024-01-15T02:44:15;97840.13;;;-2.28;80.49
62789;BME280;66401;42.016;21.454;2024-01-15T02:46:41;97828.44;;;-2.31;81.08
62789;BME280;66401;42.016;21.454;2024-01-15T02:49:06;97823.22;;;-2.29;80.72
62789;BME280;66401;42.016;21.454;2024-01-15T02:51:32;97832.69;;;-2.20;80.20
62789;BME280;66401;42.016;21.454;2024-01-15T02:53:58;97830.59;;;-2.26;80.51
62789;BME280;66401;42.016;21.454;2024-01-15T02:56:23;97825.75;;;-2.29;80.83
62789;BME280;66401;42.016;21.454;2024-01-15T02:58:48;97820.25;;;-2.45;81.36
62789;BME280;66401;42.016;21.454;2024-01-15T03:01:14;97816.00;;;-2.56;81.83
62789;BME280;66401;42.016;21.454;2024-01-15T03:03:40;97814.03;;;-2.64;82.17
62789;BME280;66401;42.016;21.454;2024-01-15T03:06:06;97815.44;;;-2.60;82.50
62789;BME280;66401;42.016;21.454;2024-01-15T03:08:32;97819.38;;;-2.67;82.53
62789;BME280;66401;42.016;21.454;2024-01-15T03:10:57;97812.28;;;-2.63;82.42
62789;BME280;66401;42.016;21.454;2024-01-15T03:13:24;97811.94;;;-2.58;82.67
62789;BME280;66401;42.016;21.454;2024-01-15T03:15:49;97801.06;;;-2.61;83.02
62789;BME280;66401;42.016;21.454;2024-01-15T03:18:15;97800.31;;;-2.51;81.86
62789;BME280;66401;42.016;21.454;2024-01-15T03:20:40;97796.94;;;-2.52;81.85
62789;BME280;66401;42.016;21.454;2024-01-15T03:23:06;97799.72;;;-2.44;81.71
62789;BME280;66401;42.016;21.454;2024-01-15T03:25:31;97794.50;;;-2.42;81.93
62789;BME280;66401;42.016;21.454;2024-01-15T03:27:57;97776.56;;;-2.52;81.95
62789;BME280;66401;42.016;21.454;2024-01-15T03:30:22;97756.75;;;-2.48;81.77
62789;BME280;66401;42.016;21.454;2024-01-15T03:32:48;97780.56;;;-2.38;82.18
62789;BME280;66401;42.016;21.454;2024-01-15T03:35:15;97737.53;;;-2.32;81.73
62789;BME280;66401;42.016;21.454;2024-01-15T03:37:40;97720.31;;;-2.39;81.96
62789;BME280;66401;42.016;21.454;2024-01-15T03:40:06;97753.72;;;-2.21;81.42
62789;BME280;66401;42.016;21.454;2024-01-15T03:42:32;97758.50;;;-2.28;81.88
62789;BME280;66401;42.016;21.454;2024-01-15T03:44:58;97754.56;;;-2.32;81.63
62789;BME280;66401;42.016;21.454;2024-01-15T03:47:23;97757.25;;;-2.34;81.43
62789;BME280;66401;42.016;21.454;2024-01-15T03:49:48;97756.22;;;-2.31;81.33
62789;BME280;66401;42.016;21.454;2024-01-15T03:52:14;97746.44;;;-2.26;81.45
62789;BME280;66401;42.016;21.454;2024-01-15T03:54:39;97745.69;;;-2.17;81.77
62789;BME280;66401;42.016;21.454;2024-01-15T03:57:05;97733.13;;;-2.50;82.29
62789;BME280;66401;42.016;21.454;2024-01-15T03:59:30;97743.47;;;-2.63;82.78
62789;BME280;66401;42.016;21.454;2024-01-15T04:01:56;97746.38;;;-2.68;83.42
62789;BME280;66401;42.016;21.454;2024-01-15T04:04:21;97750.34;;;-2.75;84.30
62789;BME280;66401;42.016;21.454;2024-01-15T04:06:47;97754.09;;;-2.90;84.71
62789;BME280;66401;42.016;21.454;2024-01-15T04:09:13;97753.16;;;-2.78;84.92
62789;BME280;66401;42.016;21.454;2024-01-15T04:11:39;97755.06;;;-2.59;84.19
62789;BME280;66401;42.016;21.454;2024-01-15T04:14:05;97733.50;;;-2.66;84.04
62789;BME280;66401;42.016;21.454;2024-01-15T04:16:30;97748.28;;;-2.49;83.95
62789;BME280;66401;42.016;21.454;2024-01-15T04:18:56;97743.13;;;-2.38;83.16
62789;BME280;66401;42.016;21.454;2024-01-15T04:21:21;97733.72;;;-2.37;82.27
62789;BME280;66401;42.016;21.454;2024-01-15T04:23:47;97741.59;;;-2.29;82.14
62789;BME280;66401;42.016;21.454;2024-01-15T04:26:12;97737.59;;;-2.22;82.34
62789;BME280;66401;42.016;21.454;2024-01-15T04:28:37;97736.84;;;-2.13;81.98
62789;BME280;66401;42.016;21.454;2024-01-15T04:31:03;97733.88;;;-2.18;81.55
62789;BME280;66401;42.016;21.454;2024-01-15T04:33:28;97737.03;;;-2.05;81.22
62789;BME280;66401;42.016;21.454;2024-01-15T04:35:54;97728.69;;;-2.07;81.08
62789;BME280;66401;42.016;21.454;2024-01-15T04:38:19;97720.97;;;-2.16;82.13
62789;BME280;66401;42.016;21.454;2024-01-15T04:40:45;97724.16;;;-2.24;82.21
62789;BME280;66401;42.016;21.454;2024-01-15T04:43:10;97721.47;;;-2.22;82.18
62789;BME280;66401;42.016;21.454;2024-01-15T04:45:36;97727.56;;;-2.14;82.00
62789;BME280;66401;42.016;21.454;2024-01-15T04:48:01;97658.31;;;-2.61;81.92
62789;BME280;66401;42.016;21.454;2024-01-15T04:50:28;97725.28;;;-2.17;81.86
62789;BME280;66401;42.016;21.454;2024-01-15T04:52:53;97740.78;;;-2.09;81.53
62789;BME280;66401;42.016;21.454;2024-01-15T04:55:19;97734.47;;;-2.05;81.27
62789;BME280;66401;42.016;21.454;2024-01-15T04:57:44;97736.59;;;-2.10;81.01
62789;BME280;66401;42.016;21.454;2024-01-15T05:00:10;97733.38;;;-2.12;81.74
62789;BME280;66401;42.016;21.454;2024-01-15T05:02:37;97727.09;;;-2.28;82.10
62789;BME280;66401;42.016;21.454;2024-01-15T05:05:03;97728.38;;;-2.13;81.66
62789;BME280;66401;42.016;21.454;2024-01-15T05:07:28;97727.34;;;-2.11;82.02
62789;BME280;66401;42.016;21.454;2024-01-15T05:09:54;97718.56;;;-2.18;81.50
62789;BME280;66401;42.016;21.454;2024-01-15T05:12:19;97724.97;;;-2.03;81.34
62789;BME280;66401;42.016;21.454;2024-01-15T05:14:45;97718.00;;;-2.00;81.29
62789;BME280;66401;42.016;21.454;2024-01-15T05:17:10;97716.53;;;-1.93;81.84
62789;BME280;66401;42.016;21.454;2024-01-15T05:19:36;97707.38;;;-1.96;82.48
62789;BME280;66401;42.016;21.454;2024-01-15T05:22:01;97719.78;;;-1.91;81.81
62789;BME280;66401;42.016;21.454;2024-01-15T05:24:26;97717.78;;;-1.88;81.62
62789;BME280;66401;42.016;21.454;2024-01-15T05:26:52;97721.63;;;-1.93;81.66
62789;BME280;66401;42.016;21.454;2024-01-15T05:29:17;97709.88;;;-2.06;81.82
62789;BME280;66401;42.016;21.454;2024-01-15T05:31:43;97719.16;;;-2.05;83.08
62789;BME280;66401;42.016;21.454;2024-01-15T05:34:09;97715.97;;;-1.97;82.94
62789;BME280;66401;42.016;21.454;2024-01-15T05:36:34;97710.50;;;-1.92;83.00
62789;BME280;66401;42.016;21.454;2024-01-15T05:39:00;97708.19;;;-1.95;83.21
62789;BME280;66401;42.016;21.454;2024-01-15T05:41:25;97701.06;;;-2.02;83.17
62789;BME280;66401;42.016;21.454;2024-01-15T05:43:51;97684.81;;;-2.00;82.98
62789;BME280;66401;42.016;21.454;2024-01-15T05:46:17;97674.84;;;-2.04;82.85
62789;BME280;66401;42.016;21.454;2024-01-15T05:48:42;97691.78;;;-2.03;82.25
62789;BME280;66401;42.016;21.454;2024-01-15T05:51:08;97690.16;;;-2.04;82.48
62789;BME280;66401;42.016;21.454;2024-01-15T05:53:33;97703.63;;;-2.02;82.36
62789;BME280;66401;42.016;21.454;2024-01-15T05:55:59;97703.31;;;-2.08;82.55
62789;BME280;66401;42.016;21.454;2024-01-15T05:58:26;97687.44;;;-2.12;83.55
62789;BME280;66401;42.016;21.454;2024-01-15T06:00:51;97688.94;;;-2.09;83.88
62789;BME280;66401;42.016;21.454;2024-01-15T06:03:17;97685.75;;;-2.02;83.28
62789;BME280;66401;42.016;21.454;2024-01-15T06:05:42;97666.94;;;-2.00;82.97
62789;BME280;66401;42.016;21.454;2024-01-15T06:08:09;97669.38;;;-1.99;83.84
62789;BME280;66401;42.016;21.454;2024-01-15T06:10:34;97656.19;;;-2.04;83.05
62789;BME280;66401;42.016;21.454;2024-01-15T06:13:00;97667.94;;;-1.92;82.86
62789;BME280;66401;42.016;21.454;2024-01-15T06:15:25;97678.59;;;-2.08;83.29
62789;BME280;66401;42.016;21.454;2024-01-15T06:17:51;97692.78;;;-2.15;83.63
62789;BME280;66401;42.016;21.454;2024-01-15T06:20:16;97684.16;;;-2.44;84.39
62789;BME280;66401;42.016;21.454;2024-01-15T06:22:42;97668.09;;;-2.35;84.38
62789;BME280;66401;42.016;21.454;2024-01-15T06:25:08;97666.28;;;-2.23;84.66
62789;BME280;66401;42.016;21.454;2024-01-15T06:27:33;97669.19;;;-2.07;83.85
62789;BME280;66401;42.016;21.454;2024-01-15T06:29:59;97663.59;;;-2.01;83.10
62789;BME280;66401;42.016;21.454;2024-01-15T06:32:24;97660.81;;;-1.88;82.58
62789;BME280;66401;42.016;21.454;2024-01-15T06:34:50;97647.50;;;-1.92;82.81
62789;BME280;66401;42.016;21.454;2024-01-15T06:37:15;97649.97;;;-1.81;82.67
62789;BME280;66401;42.016;21.454;2024-01-15T06:39:41;97655.63;;;-1.77;81.71
62789;BME280;66401;42.016;21.454;2024-01-15T06:42:06;97660.66;;;-1.96;83.14
62789;BME280;66401;42.016;21.454;2024-01-15T06:44:32;97668.53;;;-2.09;83.00
62789;BME280;66401;42.016;21.454;2024-01-15T06:46:57;97668.81;;;-2.03;83.20
62789;BME280;66401;42.016;21.454;2024-01-15T06:49:28;97673.56;;;-1.88;83.92
62789;BME280;66401;42.016;21.454;2024-01-15T06:51:54;97677.66;;;-1.76;83.32
62789;BME280;66401;42.016;21.454;2024-01-15T06:54:19;97674.31;;;-1.67;82.86
62789;BME280;66401;42.016;21.454;2024-01-15T06:56:45;97659.13;;;-1.68;81.65
62789;BME280;66401;42.016;21.454;2024-01-15T06:59:11;97675.38;;;-1.79;83.19
62789;BME280;66401;42.016;21.454;2024-01-15T07:01:36;97668.03;;;-1.63;82.02
62789;BME280;66401;42.016;21.454;2024-01-15T07:04:02;97672.81;;;-1.79;83.32
62789;BME280;66401;42.016;21.454;2024-01-15T07:06:28;97683.38;;;-1.84;83.38
62789;BME280;66401;42.016;21.454;2024-01-15T07:08:56;97694.50;;;-1.94;84.54
62789;BME280;66401;42.016;21.454;2024-01-15T07:11:21;97683.88;;;-1.69;83.22
62789;BME280;66401;42.016;21.454;2024-01-15T07:13:47;97682.03;;;-1.48;82.33
62789;BME280;66401;42.016;21.454;2024-01-15T07:16:13;97688.81;;;-1.27;82.09
62789;BME280;66401;42.016;21.454;2024-01-15T07:18:38;97691.53;;;-1.19;80.64
62789;BME280;66401;42.016;21.454;2024-01-15T07:21:04;97691.78;;;-1.22;80.80
62789;BME280;66401;42.016;21.454;2024-01-15T07:23:31;97688.59;;;-1.05;80.91
62789;BME280;66401;42.016;21.454;2024-01-15T07:25:57;97689.66;;;-0.78;80.45
62789;BME280;66401;42.016;21.454;2024-01-15T07:28:23;97696.16;;;-0.65;80.44
62789;BME280;66401;42.016;21.454;2024-01-15T07:30:48;97661.97;;;-0.73;79.76
62789;BME280;66401;42.016;21.454;2024-01-15T07:33:14;97689.28;;;-0.64;80.28
62789;BME280;66401;42.016;21.454;2024-01-15T07:35:39;97678.75;;;-0.42;77.96
62789;BME280;66401;42.016;21.454;2024-01-15T07:38:05;97685.59;;;-0.33;78.19
62789;BME280;66401;42.016;21.454;2024-01-15T07:40:30;97679.00;;;-0.25;77.72
62789;BME280;66401;42.016;21.454;2024-01-15T07:42:56;97683.16;;;-0.15;77.13
62789;BME280;66401;42.016;21.454;2024-01-15T07:45:21;97679.88;;;0.03;76.78
62789;BME280;66401;42.016;21.454;2024-01-15T07:47:47;97682.78;;;0.17;76.41
62789;BME280;66401;42.016;21.454;2024-01-15T07:50:12;97688.47;;;0.66;75.94
62789;BME280;66401;42.016;21.454;2024-01-15T07:52:40;97689.63;;;0.54;75.00
62789;BME280;66401;42.016;21.454;2024-01-15T07:55:07;97676.72;;;0.46;73.48
62789;BME280;66401;42.016;21.454;2024-01-15T07:57:32;97674.34;;;0.35;75.25
62789;BME280;66401;42.016;21.454;2024-01-15T07:59:58;97682.88;;;0.53;74.18
62789;BME280;66401;42.016;21.454;2024-01-15T08:02:23;97688.56;;;0.47;73.63
62789;BME280;66401;42.016;21.454;2024-01-15T08:04:49;97689.81;;;0.43;74.26
62789;BME280;66401;42.016;21.454;2024-01-15T08:07:15;97693.19;;;0.43;73.74
62789;BME280;66401;42.016;21.454;2024-01-15T08:09:40;97704.09;;;0.08;74.54
62789;BME280;66401;42.016;21.454;2024-01-15T08:12:07;97703.00;;;0.20;74.85
62789;BME280;66401;42.016;21.454;2024-01-15T08:14:32;97690.44;;;1.00;73.84
62789;BME280;66401;42.016;21.454;2024-01-15T08:16:58;97678.50;;;0.91;71.28
62789;BME280;66401;42.016;21.454;2024-01-15T08:19:24;97670.41;;;0.85;70.69
62789;BME280;66401;42.016;21.454;2024-01-15T08:21:49;97684.50;;;0.81;72.02
62789;BME280;66401;42.016;21.454;2024-01-15T08:24:15;97680.72;;;0.58;73.01
62789;BME280;66401;42.016;21.454;2024-01-15T08:26:40;97694.00;;;0.71;71.66
62789;BME280;66401;42.016;21.454;2024-01-15T08:29:06;97692.53;;;0.69;71.78
62789;BME280;66401;42.016;21.454;2024-01-15T08:31:31;97684.94;;;0.95;72.15
62789;BME280;66401;42.016;21.454;2024-01-15T08:33:57;97674.91;;;1.19;71.22
62789;BME280;66401;42.016;21.454;2024-01-15T08:36:23;97683.91;;;1.41;69.50
62789;BME280;66401;42.016;21.454;2024-01-15T08:38:49;97679.78;;;1.66;69.96
62789;BME280;66401;42.016;21.454;2024-01-15T08:41:15;97694.13;;;2.03;68.04
62789;BME280;66401;42.016;21.454;2024-01-15T08:43:40;97678.50;;;2.22;67.14
62789;BME280;66401;42.016;21.454;2024-01-15T08:46:06;97682.34;;;3.19;65.17
62789;BME280;66401;42.016;21.454;2024-01-15T08:48:32;97685.22;;;3.24;64.13
62789;BME280;66401;42.016;21.454;2024-01-15T08:50:57;97681.00;;;2.98;62.97
62789;BME280;66401;42.016;21.454;2024-01-15T08:53:23;97685.47;;;2.88;62.70
62789;BME280;66401;42.016;21.454;2024-01-15T08:55:49;97674.16;;;2.56;64.15
62789;BME280;66401;42.016;21.454;2024-01-15T08:58:15;97673.50;;;1.86;66.05
62789;BME280;66401;42.016;21.454;2024-01-15T09:00:40;97677.88;;;1.68;68.30
62789;BME280;66401;42.016;21.454;2024-01-15T09:03:06;97676.28;;;2.01;66.64
62789;BME280;66401;42.016;21.454;2024-01-15T09:05:33;97668.72;;;2.25;66.75
62789;BME280;66401;42.016;21.454;2024-01-15T09:07:59;97668.22;;;2.64;65.33
62789;BME280;66401;42.016;21.454;2024-01-15T09:10:24;97668.13;;;2.98;64.00
62789;BME280;66401;42.016;21.454;2024-01-15T09:12:50;97663.03;;;3.14;64.70
62789;BME280;66401;42.016;21.454;2024-01-15T09:15:16;97663.34;;;3.11;62.88
62789;BME280;66401;42.016;21.454;2024-01-15T09:17:42;97652.22;;;2.86;63.51
62789;BME280;66401;42.016;21.454;2024-01-15T09:20:08;97639.53;;;3.01;63.67
62789;BME280;66401;42.016;21.454;2024-01-15T09:22:35;97643.94;;;2.58;64.75
62789;BME280;66401;42.016;21.454;2024-01-15T09:25:01;97628.56;;;2.75;64.29
62789;BME280;66401;42.016;21.454;2024-01-15T09:27:26;97634.91;;;2.46;65.64
62789;BME280;66401;42.016;21.454;2024-01-15T09:29:55;97618.09;;;2.18;65.95
62789;BME280;66401;42.016;21.454;2024-01-15T09:32:20;97634.88;;;1.96;67.67
62789;BME280;66401;42.016;21.454;2024-01-15T09:34:46;97640.72;;;2.56;66.10
62789;BME280;66401;42.016;21.454;2024-01-15T09:37:13;97632.09;;;2.74;65.65
62789;BME280;66401;42.016;21.454;2024-01-15T09:39:39;97610.53;;;2.58;66.01
62789;BME280;66401;42.016;21.454;2024-01-15T09:42:05;97605.09;;;2.86;64.44
62789;BME280;66401;42.016;21.454;2024-01-15T09:44:31;97603.84;;;2.82;65.46
62789;BME280;66401;42.016;21.454;2024-01-15T09:46:57;97609.78;;;2.99;64.88
62789;BME280;66401;42.016;21.454;2024-01-15T09:49:23;97605.44;;;3.15;64.59
62789;BME280;66401;42.016;21.454;2024-01-15T09:51:49;97594.81;;;3.35;63.54
62789;BME280;66401;42.016;21.454;2024-01-15T09:54:15;97602.53;;;3.51;62.57
62789;BME280;66401;42.016;21.454;2024-01-15T09:56:45;97582.59;;;3.37;62.84
62789;BME280;66401;42.016;21.454;2024-01-15T09:59:16;97583.78;;;3.82;61.15
62789;BME280;66401;42.016;21.454;2024-01-15T10:01:43;97589.41;;;3.93;60.79
62789;BME280;66401;42.016;21.454;2024-01-15T10:04:12;97577.06;;;4.20;60.05
62789;BME280;66401;42.016;21.454;2024-01-15T10:06:38;97566.50;;;4.38;59.35
62789;BME280;66401;42.016;21.454;2024-01-15T10:09:05;97573.16;;;5.01;57.96
62789;BME280;66401;42.016;21.454;2024-01-15T10:11:30;97570.38;;;4.87;56.95
62789;BME280;66401;42.016;21.454;2024-01-15T10:13:57;97559.13;;;4.80;56.76
62789;BME280;66401;42.016;21.454;2024-01-15T10:16:23;97538.22;;;4.75;57.51
62789;BME280;66401;42.016;21.454;2024-01-15T10:18:49;97537.16;;;4.39;58.82
62789;BME280;66401;42.016;21.454;2024-01-15T10:21:15;97553.06;;;4.19;59.66
62789;BME280;66401;42.016;21.454;2024-01-15T10:23:41;97543.41;;;4.13;59.16
62789;BME280;66401;42.016;21.454;2024-01-15T10:26:07;97526.63;;;4.25;59.47
62789;BME280;66401;42.016;21.454;2024-01-15T10:28:32;97513.28;;;4.14;58.61
62789;BME280;66401;42.016;21.454;2024-01-15T10:30:59;97523.59;;;3.83;59.67
62789;BME280;66401;42.016;21.454;2024-01-15T10:33:27;97517.13;;;3.48;59.74
62789;BME280;66401;42.016;21.454;2024-01-15T10:36:00;97514.31;;;3.65;60.66
62789;BME280;66401;42.016;21.454;2024-01-15T10:38:26;97511.44;;;3.60;60.21
62789;BME280;66401;42.016;21.454;2024-01-15T10:40:52;97485.09;;;3.42;60.21
62789;BME280;66401;42.016;21.454;2024-01-15T10:43:18;97493.66;;;3.82;59.13
62789;BME280;66401;42.016;21.454;2024-01-15T10:45:48;97485.28;;;3.80;60.79
62789;BME280;66401;42.016;21.454;2024-01-15T10:48:16;97485.13;;;4.12;60.24
62789;BME280;66401;42.016;21.454;2024-01-15T10:50:43;97472.81;;;4.22;59.70
62789;BME280;66401;42.016;21.454;2024-01-15T10:53:11;97446.84;;;4.24;59.05
62789;BME280;66401;42.016;21.454;2024-01-15T10:55:38;97461.03;;;4.28;59.19
62789;BME280;66401;42.016;21.454;2024-01-15T10:58:05;97460.91;;;4.21;59.26
62789;BME280;66401;42.016;21.454;2024-01-15T11:00:36;97446.81;;;4.55;59.07
62789;BME280;66401;42.016;21.454;2024-01-15T11:03:03;97452.72;;;4.41;57.13
62789;BME280;66401;42.016;21.454;2024-01-15T11:05:37;97438.28;;;4.54;57.65
62789;BME280;66401;42.016;21.454;2024-01-15T11:08:05;97434.50;;;4.80;56.76
62789;BME280;66401;42.016;21.454;2024-01-15T11:16:18;97425.53;;;4.53;59.00
62789;BME280;66401;42.016;21.454;2024-01-15T11:19:01;97412.66;;;4.30;57.44
62789;BME280;66401;42.016;21.454;2024-01-15T11:21:28;97411.19;;;3.90;58.36
62789;BME280;66401;42.016;21.454;2024-01-15T11:23:58;97407.28;;;3.94;58.95
62789;BME280;66401;42.016;21.454;2024-01-15T11:26:46;97406.94;;;3.97;58.90
62789;BME280;66401;42.016;21.454;2024-01-15T11:34:21;97405.78;;;4.22;57.54
62789;BME280;66401;42.016;21.454;2024-01-15T11:37:06;97394.16;;;4.03;57.65
62789;BME280;66401;42.016;21.454;2024-01-15T11:42:02;97395.22;;;4.17;56.56
62789;BME280;66401;42.016;21.454;2024-01-15T11:44:31;97375.41;;;4.18;56.96
62789;BME280;66401;42.016;21.454;2024-01-15T11:47:00;97369.78;;;3.91;57.93
62789;BME280;66401;42.016;21.454;2024-01-15T11:52:17;97381.59;;;4.09;57.50
62789;BME280;66401;42.016;21.454;2024-01-15T11:54:53;97374.91;;;4.14;55.98
62789;BME280;66401;42.016;21.454;2024-01-15T11:57:47;97352.09;;;4.11;57.64
62789;BME280;66401;42.016;21.454;2024-01-15T12:00:15;97360.72;;;4.18;57.86
62789;BME280;66401;42.016;21.454;2024-01-15T12:02:44;97362.09;;;4.29;57.25
62789;BME280;66401;42.016;21.454;2024-01-15T12:05:12;97357.97;;;4.20;57.35
62789;BME280;66401;42.016;21.454;2024-01-15T12:07:39;97357.19;;;4.19;56.02
62789;BME280;66401;42.016;21.454;2024-01-15T12:10:09;97344.28;;;4.19;57.12
62789;BME280;66401;42.016;21.454;2024-01-15T12:12:56;97342.06;;;3.93;56.54
62789;BME280;66401;42.016;21.454;2024-01-15T12:15:24;97324.44;;;3.82;56.12
62789;BME280;66401;42.016;21.454;2024-01-15T12:17:50;97323.53;;;3.75;56.32
62789;BME280;66401;42.016;21.454;2024-01-15T12:20:15;97323.66;;;3.59;56.90
62789;BME280;66401;42.016;21.454;2024-01-15T12:22:42;97321.75;;;3.76;56.22
62789;BME280;66401;42.016;21.454;2024-01-15T12:25:08;97313.75;;;3.70;56.83
62789;BME280;66401;42.016;21.454;2024-01-15T12:27:34;97303.28;;;3.72;57.71
62789;BME280;66401;42.016;21.454;2024-01-15T12:30:00;97305.16;;;3.55;57.62
62789;BME280;66401;42.016;21.454;2024-01-15T12:32:25;97304.41;;;3.69;58.00
62789;BME280;66401;42.016;21.454;2024-01-15T12:34:51;97305.97;;;3.79;58.26
62789;BME280;66401;42.016;21.454;2024-01-15T12:37:20;97306.94;;;3.78;58.95
62789;BME280;66401;42.016;21.454;2024-01-15T12:39:46;97305.19;;;3.93;58.43
62789;BME280;66401;42.016;21.454;2024-01-15T12:42:14;97302.56;;;4.01;57.40
62789;BME280;66401;42.016;21.454;2024-01-15T12:44:40;97295.88;;;3.92;57.71
62789;BME280;66401;42.016;21.454;2024-01-15T12:47:06;97294.06;;;3.78;56.79
62789;BME280;66401;42.016;21.454;2024-01-15T12:49:32;97304.72;;;4.12;56.90
62789;BME280;66401;42.016;21.454;2024-01-15T12:51:58;97287.16;;;4.30;56.56
62789;BME280;66401;42.016;21.454;2024-01-15T12:54:24;97302.84;;;4.73;56.12
62789;BME280;66401;42.016;21.454;2024-01-15T12:56:50;97283.81;;;4.74;54.66
62789;BME280;66401;42.016;21.454;2024-01-15T12:59:17;97286.28;;;4.82;54.04
62789;BME280;66401;42.016;21.454;2024-01-15T13:01:43;97297.06;;;4.86;53.85
62789;BME280;66401;42.016;21.454;2024-01-15T13:04:08;97284.69;;;4.96;53.87
62789;BME280;66401;42.016;21.454;2024-01-15T13:06:37;97289.56;;;4.91;54.41